Time;durP1;ratioP1;P1;durP2;ratioP2;P2;SDS_P1;SDS_P2;PMS_P1;PMS_P2;Temp;Humidity;BMP_temperature;BMP_pressure;BME280_temperature;BME280_humidity;BME280_pressure;Samples;Min_cycle;Max_cycle;Signal;HPM_P1;HPM_P2
2022/04/02 00:01:27;;;;;;;3.43;2.43;;;2.80;99.90;;;;;;5051312;28;20524;-63
2022/04/02 00:03:55;;;;;;;7.00;2.30;;;2.80;99.90;;;;;;5050793;28;20520;-63
2022/04/02 00:06:23;;;;;;;4.03;1.93;;;2.80;99.90;;;;;;5051162;28;20477;-63
2022/04/02 00:08:54;;;;;;;3.30;1.90;;;2.80;99.90;;;;;;5051116;28;20597;-63
2022/04/02 00:11:22;;;;;;;3.87;2.03;;;2.80;99.90;;;;;;5051136;28;20876;-63
2022/04/02 00:13:50;;;;;;;3.50;1.87;;;2.80;99.90;;;;;;5050953;28;20473;-63
2022/04/02 00:16:18;;;;;;;3.33;2.03;;;2.80;99.90;;;;;;5051139;28;20522;-63
2022/04/02 00:18:49;;;;;;;3.73;2.20;;;2.80;99.90;;;;;;5050858;28;20986;-63
2022/04/02 00:21:18;;;;;;;5.90;2.10;;;2.80;99.90;;;;;;5050904;28;20558;-63
2022/04/02 00:23:46;;;;;;;3.83;2.20;;;2.70;99.90;;;;;;5050371;28;20482;-63
2022/04/02 00:26:19;;;;;;;3.17;2.23;;;2.80;99.90;;;;;;5050740;28;20498;-63
2022/04/02 00:28:49;;;;;;;2.90;2.20;;;2.80;99.90;;;;;;5049392;28;20475;-63
2022/04/02 00:31:19;;;;;;;4.53;2.07;;;2.70;99.90;;;;;;5050634;28;20837;-63
2022/04/02 00:33:49;;;;;;;4.63;2.43;;;2.70;99.90;;;;;;5049219;28;21038;-63
2022/04/02 00:36:20;;;;;;;3.70;2.00;;;2.70;99.90;;;;;;5030211;28;20479;-63
2022/04/02 00:38:48;;;;;;;3.90;2.10;;;2.70;99.90;;;;;;5029425;28;20577;-63
2022/04/02 00:41:18;;;;;;;4.87;2.33;;;2.70;99.90;;;;;;5030811;28;20474;-63
2022/04/02 00:43:59;;;;;;;3.03;1.87;;;2.70;99.90;;;;;;5044227;28;20922;-63
2022/04/02 00:46:28;;;;;;;4.73;2.27;;;2.70;99.90;;;;;;5041381;28;20474;-62
2022/04/02 00:48:56;;;;;;;2.60;1.90;;;2.70;99.90;;;;;;5049028;28;20559;-63
2022/04/02 00:51:25;;;;;;;2.50;1.93;;;2.80;99.90;;;;;;5050331;28;20498;-63
2022/04/02 00:53:53;;;;;;;4.93;2.17;;;2.70;99.90;;;;;;5049010;28;20475;-63
2022/04/02 00:56:23;;;;;;;3.77;2.40;;;2.80;99.90;;;;;;5049227;28;20500;-63
2022/04/02 00:58:51;;;;;;;5.00;2.27;;;2.80;99.90;;;;;;5050476;28;20483;-63
2022/04/02 01:01:19;;;;;;;5.80;2.80;;;2.70;99.90;;;;;;5049013;28;20476;-63
2022/04/02 01:03:49;;;;;;;4.53;2.30;;;2.70;99.90;;;;;;5048613;28;20467;-63
2022/04/02 01:06:23;;;;;;;3.87;2.20;;;2.70;99.90;;;;;;5049147;28;20478;-63
2022/04/02 01:08:53;;;;;;;4.43;2.20;;;2.70;99.90;;;;;;5048915;28;20521;-63
2022/04/02 01:11:23;;;;;;;4.00;2.30;;;2.70;99.90;;;;;;5050437;28;21323;-63
2022/04/02 01:13:55;;;;;;;3.70;1.93;;;2.60;99.90;;;;;;5049016;28;20478;-64
2022/04/02 01:16:24;;;;;;;3.77;2.40;;;2.60;99.90;;;;;;5050439;28;20520;-63
2022/04/02 01:19:01;;;;;;;6.60;2.53;;;2.70;99.90;;;;;;5048803;28;20465;-63
2022/04/02 01:21:30;;;;;;;3.40;2.20;;;2.60;99.90;;;;;;5048889;28;20503;-64
2022/04/02 01:24:07;;;;;;;3.90;1.97;;;2.60;99.90;;;;;;5048329;28;20467;-64
2022/04/02 01:26:35;;;;;;;4.07;2.60;;;2.50;99.90;;;;;;5049045;28;20519;-63
2022/04/02 01:29:13;;;;;;;3.70;2.33;;;2.50;99.90;;;;;;5048409;28;21006;-63
2022/04/02 01:31:47;;;;;;;4.03;2.40;;;2.50;99.90;;;;;;5048513;28;20991;-63
2022/04/02 01:34:20;;;;;;;2.60;2.40;;;2.40;99.90;;;;;;5048803;28;20478;-63
2022/04/02 01:36:51;;;;;;;3.93;2.37;;;2.40;99.90;;;;;;5048768;28;20481;-63
2022/04/02 01:39:36;;;;;;;3.50;2.30;;;2.50;99.90;;;;;;5048268;28;20482;-63
2022/04/02 01:42:07;;;;;;;3.37;2.30;;;2.40;99.90;;;;;;5048808;28;20478;-63
2022/04/02 01:44:49;;;;;;;3.70;2.20;;;2.30;99.90;;;;;;5049632;28;20470;-63
2022/04/02 01:47:19;;;;;;;3.07;2.30;;;2.30;99.90;;;;;;5051329;28;20564;-63
2022/04/02 01:49:48;;;;;;;3.13;2.30;;;2.30;99.90;;;;;;5052184;28;20478;-63
2022/04/02 01:52:17;;;;;;;4.83;2.50;;;2.30;99.90;;;;;;5053848;28;20472;-63
2022/04/02 01:54:48;;;;;;;3.43;2.77;;;2.30;99.90;;;;;;5053274;28;20521;-63
2022/04/02 01:57:19;;;;;;;3.73;2.40;;;2.30;99.90;;;;;;5049050;28;20559;-63
2022/04/02 01:59:49;;;;;;;5.33;2.80;;;2.20;99.90;;;;;;5048659;28;20538;-63
2022/04/02 02:02:20;;;;;;;4.67;2.80;;;2.20;99.90;;;;;;5031750;28;20506;-63
2022/04/02 02:04:48;;;;;;;3.00;2.70;;;2.30;99.90;;;;;;5033303;28;20492;-63
2022/04/02 02:07:17;;;;;;;4.43;2.33;;;2.30;99.90;;;;;;5032379;28;20475;-63
2022/04/02 02:09:52;;;;;;;5.33;2.93;;;2.30;99.90;;;;;;5032160;28;20472;-63
2022/04/02 02:12:37;;;;;;;4.00;2.50;;;2.30;99.90;;;;;;5051613;28;20466;-63
2022/04/02 02:15:17;;;;;;;3.40;2.67;;;2.30;99.90;;;;;;5051845;28;20473;-62
2022/04/02 02:17:55;;;;;;;3.77;2.80;;;2.30;99.90;;;;;;5023194;28;20825;-63
2022/04/02 02:20:23;;;;;;;4.30;2.63;;;2.30;99.90;;;;;;5047929;28;20502;-63
2022/04/02 02:22:52;;;;;;;2.97;2.40;;;2.20;99.90;;;;;;5051454;28;20505;-63
2022/04/02 02:25:21;;;;;;;4.33;2.80;;;2.20;99.90;;;;;;5053074;28;20503;-63
2022/04/02 02:27:53;;;;;;;4.00;2.87;;;2.20;99.90;;;;;;5053246;28;20577;-63
2022/04/02 02:30:24;;;;;;;4.93;3.20;;;2.20;99.90;;;;;;5051590;28;20480;-63
2022/04/02 02:35:52;;;;;;;5.80;3.00;;;2.20;99.90;;;;;;5050695;28;20482;-63
2022/04/02 02:38:33;;;;;;;3.37;2.90;;;2.30;99.90;;;;;;5051596;28;20470;-63
2022/04/02 02:41:13;;;;;;;4.70;3.10;;;2.30;99.90;;;;;;5051118;28;20479;-63
2022/04/02 02:43:44;;;;;;;3.13;2.53;;;2.30;99.90;;;;;;5050736;28;20475;-62
2022/04/02 02:46:35;;;;;;;4.90;3.00;;;2.20;99.90;;;;;;5048321;28;20470;-63
2022/04/02 02:49:10;;;;;;;5.17;2.73;;;2.30;99.90;;;;;;5033997;28;20537;-63
2022/04/02 02:51:42;;;;;;;5.17;2.63;;;2.30;99.90;;;;;;5051213;28;20974;-62
2022/04/02 02:54:15;;;;;;;3.63;2.70;;;2.20;99.90;;;;;;5040501;28;20500;-63
2022/04/02 02:56:45;;;;;;;5.10;2.50;;;2.20;99.90;;;;;;5058116;28;20480;-63
2022/04/02 02:59:13;;;;;;;6.93;3.13;;;2.20;99.90;;;;;;5065176;28;20555;-62
2022/04/02 03:01:41;;;;;;;5.33;2.90;;;2.20;99.90;;;;;;5050868;28;20532;-63
2022/04/02 03:04:11;;;;;;;5.00;2.60;;;2.20;99.90;;;;;;5050267;28;20534;-63
2022/04/02 03:06:39;;;;;;;3.23;2.57;;;2.20;99.90;;;;;;5025994;28;20479;-63
2022/04/02 03:09:08;;;;;;;4.00;2.73;;;2.20;99.90;;;;;;5047416;28;20484;-63
2022/04/02 03:11:36;;;;;;;5.83;2.90;;;2.20;99.90;;;;;;5047494;28;20468;-63
2022/04/02 03:14:06;;;;;;;4.37;2.33;;;2.20;99.90;;;;;;5031149;28;20843;-63
2022/04/02 03:16:34;;;;;;;4.17;3.07;;;2.10;99.90;;;;;;5043486;28;20997;-63
2022/04/02 03:19:06;;;;;;;3.93;2.73;;;2.00;99.90;;;;;;5037338;28;20550;-63
2022/04/02 03:21:34;;;;;;;3.23;2.50;;;2.10;99.90;;;;;;5051905;28;20464;-63
2022/04/02 03:24:03;;;;;;;3.80;2.67;;;2.10;99.90;;;;;;5044750;28;20474;-63
2022/04/02 03:26:35;;;;;;;4.90;2.80;;;2.00;99.90;;;;;;5050354;28;20480;-63
2022/04/02 03:29:12;;;;;;;3.87;2.57;;;2.00;99.90;;;;;;5050148;28;20471;-63
2022/04/02 03:31:42;;;;;;;6.53;2.77;;;1.90;99.90;;;;;;5075833;28;20891;-63
2022/04/02 03:34:11;;;;;;;5.43;2.37;;;1.90;99.90;;;;;;5050415;28;21045;-64
2022/04/02 03:36:40;;;;;;;4.00;2.70;;;1.90;99.90;;;;;;5042209;28;20502;-63
2022/04/02 03:39:08;;;;;;;3.60;2.63;;;1.90;99.90;;;;;;5050065;28;20474;-63
2022/04/02 03:41:37;;;;;;;3.40;2.60;;;1.90;99.90;;;;;;5041859;28;20582;-63
2022/04/02 03:44:06;;;;;;;3.10;2.80;;;1.90;99.90;;;;;;5049930;28;20908;-64
2022/04/02 03:49:30;;;;;;;4.47;2.60;;;1.90;99.90;;;;;;5049351;28;20780;-63
2022/04/02 03:51:58;;;;;;;4.90;2.57;;;1.90;99.90;;;;;;5051342;28;20540;-63
2022/04/02 03:54:26;;;;;;;3.40;2.63;;;1.80;99.90;;;;;;5049529;28;20486;-63
2022/04/02 03:56:59;;;;;;;4.87;2.70;;;1.80;99.90;;;;;;5049931;28;20521;-63
2022/04/02 03:59:28;;;;;;;3.87;2.87;;;1.80;99.90;;;;;;5049603;28;20865;-63
2022/04/02 04:01:59;;;;;;;5.07;3.07;;;1.80;99.90;;;;;;5050058;28;20484;-63
2022/04/02 04:04:29;;;;;;;3.33;2.20;;;1.80;99.90;;;;;;5048746;28;20555;-63
2022/04/02 04:06:58;;;;;;;5.33;2.83;;;1.70;99.90;;;;;;5049595;28;20462;-63
2022/04/02 04:09:28;;;;;;;5.07;2.87;;;1.70;99.90;;;;;;5048601;28;20471;-63
2022/04/02 04:11:57;;;;;;;7.00;3.27;;;1.70;99.90;;;;;;5049603;28;20478;-63
2022/04/02 04:14:29;;;;;;;6.17;2.87;;;1.70;99.90;;;;;;5049411;28;20885;-63
2022/04/02 04:17:01;;;;;;;4.93;3.10;;;1.70;99.90;;;;;;5049236;28;20536;-63
2022/04/02 04:19:31;;;;;;;3.87;3.07;;;1.70;99.90;;;;;;5049065;28;20471;-63
2022/04/02 04:22:02;;;;;;;6.60;3.33;;;1.60;99.90;;;;;;5049584;28;21001;-63
2022/04/02 04:24:31;;;;;;;3.13;2.63;;;1.70;99.90;;;;;;5048081;28;21007;-64
2022/04/02 04:27:00;;;;;;;3.97;2.87;;;1.60;99.90;;;;;;5049486;28;20553;-63
2022/04/02 04:29:28;;;;;;;4.30;3.07;;;1.60;99.90;;;;;;5050604;28;20562;-63
2022/04/02 04:31:57;;;;;;;4.10;3.17;;;1.60;99.90;;;;;;5049124;28;22186;-63
2022/04/02 04:34:26;;;;;;;3.73;2.60;;;1.60;99.90;;;;;;5047240;28;20567;-62
2022/04/02 04:36:54;;;;;;;5.57;3.30;;;1.50;99.90;;;;;;5050610;28;20482;-63
2022/04/02 04:39:23;;;;;;;5.70;3.50;;;1.60;99.90;;;;;;5049364;28;20539;-63
2022/04/02 04:41:54;;;;;;;5.70;3.30;;;1.50;99.90;;;;;;5049181;28;20569;-63
2022/04/02 04:44:27;;;;;;;4.60;3.03;;;1.50;99.90;;;;;;5049585;28;20998;-63
2022/04/02 04:46:56;;;;;;;5.60;3.50;;;1.40;99.90;;;;;;5048758;28;20477;-63
2022/04/02 04:49:26;;;;;;;6.13;3.07;;;1.40;99.90;;;;;;5049158;28;20478;-63
2022/04/02 04:52:00;;;;;;;4.33;3.23;;;1.40;99.90;;;;;;5043215;28;20478;-63
2022/04/02 04:54:29;;;;;;;4.60;3.10;;;1.40;99.90;;;;;;5048501;28;20483;-63
2022/04/02 04:56:58;;;;;;;3.83;3.20;;;1.40;99.90;;;;;;5045821;28;21514;-62
2022/04/02 04:59:26;;;;;;;5.30;3.30;;;1.40;99.90;;;;;;5067560;28;20471;-62
2022/04/02 05:01:56;;;;;;;4.83;3.13;;;1.30;99.90;;;;;;5047431;28;20559;-63
2022/04/02 05:04:26;;;;;;;5.40;3.67;;;1.30;99.90;;;;;;5048003;28;21037;-62
2022/04/02 05:06:56;;;;;;;6.03;3.50;;;1.30;99.90;;;;;;5047866;28;20471;-63
2022/04/02 05:09:26;;;;;;;5.87;2.97;;;1.30;99.90;;;;;;5043182;28;20483;-62
2022/04/02 05:11:58;;;;;;;4.03;3.13;;;1.30;99.90;;;;;;5045286;28;20979;-63
2022/04/02 05:14:28;;;;;;;4.83;3.50;;;1.30;99.90;;;;;;5040121;28;20479;-63
2022/04/02 05:16:58;;;;;;;4.17;3.13;;;1.30;99.90;;;;;;5042653;28;20981;-63
2022/04/02 05:19:32;;;;;;;5.10;3.10;;;1.30;99.90;;;;;;5045018;28;20473;-63
2022/04/02 05:22:03;;;;;;;5.73;3.20;;;1.30;99.90;;;;;;5049512;28;20539;-63
2022/04/02 05:24:36;;;;;;;6.30;3.30;;;1.30;99.90;;;;;;5051897;28;20803;-63
2022/04/02 05:27:05;;;;;;;3.90;3.00;;;1.30;99.90;;;;;;5054151;28;20479;-63
2022/04/02 05:29:33;;;;;;;3.13;2.77;;;1.30;99.90;;;;;;5053964;28;20826;-63
2022/04/02 05:32:02;;;;;;;5.73;3.10;;;1.30;99.90;;;;;;5052160;28;20474;-63
2022/04/02 05:34:32;;;;;;;4.27;2.97;;;1.30;99.90;;;;;;5053625;28;20508;-63
2022/04/02 05:37:01;;;;;;;5.93;3.27;;;1.30;99.90;;;;;;5053879;28;20800;-64
2022/04/02 05:39:29;;;;;;;6.90;3.40;;;1.30;99.90;;;;;;5052156;28;20473;-63
2022/04/02 05:41:59;;;;;;;5.40;3.13;;;1.30;99.90;;;;;;5052547;28;20470;-63
2022/04/02 05:44:27;;;;;;;6.70;3.50;;;1.40;99.90;;;;;;5052874;28;20478;-63
2022/04/02 05:46:55;;;;;;;5.30;3.43;;;1.40;99.90;;;;;;5052014;28;20545;-63
2022/04/02 05:49:45;;;;;;;4.73;3.10;;;1.40;99.90;;;;;;5053200;28;20804;-64
2022/04/02 05:52:13;;;;;;;4.40;2.93;;;1.40;99.90;;;;;;5053642;28;20550;-63
2022/04/02 05:54:42;;;;;;;5.53;3.00;;;1.50;99.90;;;;;;5052879;28;20521;-63
2022/04/02 05:57:10;;;;;;;4.93;3.13;;;1.50;99.90;;;;;;5052757;28;20501;-63
2022/04/02 05:59:39;;;;;;;4.93;3.23;;;1.50;99.90;;;;;;5047259;28;20472;-62
2022/04/02 06:02:08;;;;;;;4.10;2.80;;;1.50;99.90;;;;;;5052442;28;20474;-61
2022/04/02 06:04:37;;;;;;;5.17;3.17;;;1.60;99.90;;;;;;5053148;28;20474;-63
2022/04/02 06:07:07;;;;;;;7.20;3.40;;;1.60;99.90;;;;;;5053162;28;20577;-63
2022/04/02 06:09:35;;;;;;;4.97;3.03;;;1.60;99.90;;;;;;5050057;28;20473;-63
2022/04/02 06:12:04;;;;;;;4.70;3.23;;;1.70;99.90;;;;;;5047021;28;20476;-63
2022/04/02 06:14:32;;;;;;;4.80;3.23;;;1.80;99.90;;;;;;5048481;28;20503;-63
2022/04/02 06:17:00;;;;;;;5.33;3.10;;;1.80;99.90;;;;;;5050240;28;21006;-63
2022/04/02 06:19:28;;;;;;;5.53;3.13;;;1.90;99.90;;;;;;5052602;28;20462;-63
2022/04/02 06:22:01;;;;;;;5.13;3.40;;;1.90;99.90;;;;;;5052817;28;20537;-63
2022/04/02 06:24:30;;;;;;;5.43;3.10;;;2.00;99.90;;;;;;5049933;28;20521;-63
2022/04/02 06:26:58;;;;;;;5.30;3.00;;;2.20;99.90;;;;;;5052295;28;20474;-63
2022/04/02 06:29:26;;;;;;;4.07;3.17;;;2.30;99.90;;;;;;5040124;28;20486;-62
2022/04/02 06:31:55;;;;;;;4.03;2.90;;;2.40;99.90;;;;;;5052212;28;20537;-63
2022/04/02 06:34:23;;;;;;;4.10;3.00;;;2.40;99.90;;;;;;5047210;28;20560;-63
2022/04/02 06:36:51;;;;;;;4.50;3.20;;;2.50;99.90;;;;;;5050166;28;20800;-63
2022/04/02 06:39:19;;;;;;;4.80;3.30;;;2.60;99.90;;;;;;5046613;28;20494;-63
2022/04/02 06:41:49;;;;;;;4.87;2.97;;;2.70;99.90;;;;;;5052590;28;20480;-63
2022/04/02 06:44:17;;;;;;;4.87;3.33;;;2.80;99.90;;;;;;5051737;28;20478;-63
2022/04/02 06:46:45;;;;;;;4.13;3.10;;;2.90;99.90;;;;;;5052234;28;20467;-63
2022/04/02 06:49:13;;;;;;;4.37;3.17;;;3.00;99.90;;;;;;5052551;28;20485;-62
2022/04/02 06:51:41;;;;;;;3.97;3.20;;;3.00;99.90;;;;;;5051754;28;20524;-61
2022/04/02 06:54:09;;;;;;;4.60;3.00;;;3.00;99.90;;;;;;5052381;28;20822;-62
2022/04/02 06:56:37;;;;;;;4.13;3.07;;;3.10;99.90;;;;;;5044371;28;20572;-63
2022/04/02 06:59:07;;;;;;;5.83;3.30;;;3.20;99.90;;;;;;5052435;28;20578;-62
2022/04/02 07:01:35;;;;;;;3.63;2.80;;;3.30;99.90;;;;;;5052182;28;20475;-62
2022/04/02 07:04:03;;;;;;;4.00;3.00;;;3.40;99.90;;;;;;5050369;28;20826;-62
2022/04/02 07:06:34;;;;;;;5.30;3.40;;;3.50;99.90;;;;;;5051864;28;20910;-62
2022/04/02 07:09:02;;;;;;;5.63;3.00;;;3.50;99.90;;;;;;5043011;28;20527;-62
2022/04/02 07:11:30;;;;;;;2.83;2.43;;;3.60;99.90;;;;;;5051210;28;20469;-62
2022/04/02 07:13:59;;;;;;;4.73;2.90;;;3.70;99.90;;;;;;5048545;28;20502;-63
2022/04/02 07:16:29;;;;;;;4.80;2.93;;;3.70;99.90;;;;;;5051276;28;21015;-61
2022/04/02 07:19:00;;;;;;;6.33;3.20;;;3.80;99.90;;;;;;5051859;28;20484;-63
2022/04/02 07:21:29;;;;;;;3.40;3.10;;;3.90;99.90;;;;;;5049423;28;20507;-62
2022/04/02 07:23:57;;;;;;;4.97;2.90;;;4.10;99.90;;;;;;5049717;28;20470;-62
2022/04/02 07:26:27;;;;;;;2.73;2.43;;;4.20;99.90;;;;;;5049548;28;20470;-63
2022/04/02 07:28:59;;;;;;;4.70;2.83;;;4.40;99.90;;;;;;5047209;28;20468;-62
2022/04/02 07:31:29;;;;;;;4.27;2.40;;;4.30;99.90;;;;;;5049534;28;20473;-62
2022/04/02 07:33:57;;;;;;;5.33;2.87;;;4.30;99.90;;;;;;5048345;28;20488;-63
2022/04/02 07:36:39;;;;;;;3.57;2.50;;;4.40;99.90;;;;;;5049350;28;20552;-62
2022/04/02 07:39:14;;;;;;;4.57;2.47;;;4.50;99.90;;;;;;5051711;28;20474;-62
2022/04/02 07:41:46;;;;;;;5.10;2.43;;;4.80;99.90;;;;;;5043542;28;20468;-62
2022/04/02 07:44:32;;;;;;;3.63;2.33;;;4.90;99.90;;;;;;5050596;28;20485;-61
2022/04/02 07:47:03;;;;;;;2.80;2.07;;;4.90;99.90;;;;;;5050760;28;20880;-62
2022/04/02 07:49:33;;;;;;;3.10;2.00;;;5.10;99.90;;;;;;5047881;28;20470;-63
2022/04/02 07:52:03;;;;;;;2.97;2.20;;;5.10;99.90;;;;;;5050751;28;20972;-62
2022/04/02 07:54:39;;;;;;;3.13;1.90;;;5.30;99.90;;;;;;5048771;28;20466;-63
2022/04/02 07:57:09;;;;;;;3.97;1.80;;;5.60;99.90;;;;;;5028534;28;20473;-62
2022/04/02 07:59:53;;;;;;;3.67;1.60;;;5.50;99.90;;;;;;5046205;28;20560;-62
2022/04/02 08:02:39;;;;;;;2.90;1.90;;;5.50;99.90;;;;;;5050413;28;20508;-62
2022/04/02 08:05:10;;;;;;;5.30;1.70;;;5.70;99.90;;;;;;5050586;28;20889;-62
2022/04/02 08:07:43;;;;;;;2.57;1.50;;;5.70;99.90;;;;;;5050251;28;20507;-61
2022/04/02 08:10:15;;;;;;;1.67;1.50;;;5.90;99.90;;;;;;5047712;28;20875;-62
2022/04/02 08:12:47;;;;;;;3.03;1.57;;;6.00;99.90;;;;;;5042407;28;20485;-62
2022/04/02 08:15:19;;;;;;;2.90;1.40;;;6.10;99.90;;;;;;5047100;28;20485;-62
2022/04/02 08:17:52;;;;;;;1.47;1.20;;;6.20;99.90;;;;;;5050360;28;20893;-63
2022/04/02 08:20:21;;;;;;;3.10;1.40;;;6.20;99.90;;;;;;5047877;28;20496;-61
2022/04/02 08:22:50;;;;;;;2.10;1.57;;;6.20;99.90;;;;;;5049476;28;20470;-62
2022/04/02 08:25:20;;;;;;;2.00;1.60;;;6.70;99.90;;;;;;5048518;28;20478;-62
2022/04/02 08:28:00;;;;;;;2.20;1.60;;;6.70;99.90;;;;;;5050734;28;20549;-62
2022/04/02 08:30:32;;;;;;;2.23;1.60;;;6.70;99.90;;;;;;5050276;28;21379;-62
2022/04/02 08:33:25;;;;;;;3.27;1.60;;;7.00;99.90;;;;;;5050847;28;20232;-62
2022/04/02 08:36:01;;;;;;;1.87;1.47;;;7.20;99.90;;;;;;5047355;28;20260;-62
2022/04/02 08:38:35;;;;;;;3.43;2.10;;;7.40;99.90;;;;;;5050526;28;20465;-62
2022/04/02 08:41:50;;;;;;;3.20;1.70;;;7.10;99.90;;;;;;5050322;28;20293;-63
2022/04/02 08:44:56;;;;;;;1.97;1.33;;;6.90;99.90;;;;;;5048071;28;20318;-62
2022/04/02 08:48:05;;;;;;;1.50;1.33;;;6.90;99.90;;;;;;5047770;28;20261;-60
2022/04/02 08:50:37;;;;;;;1.93;1.43;;;6.80;99.90;;;;;;5046382;28;20227;-62
2022/04/02 08:53:20;;;;;;;2.43;1.30;;;6.70;99.90;;;;;;5042935;28;20850;-62
2022/04/02 08:55:51;;;;;;;1.97;1.47;;;7.10;99.90;;;;;;5044858;28;20271;-62
2022/04/02 08:58:36;;;;;;;1.80;1.27;;;7.10;99.90;;;;;;5042387;28;20482;-62
2022/04/02 09:01:07;;;;;;;1.37;1.07;;;7.10;99.90;;;;;;5045422;28;20492;-62
2022/04/02 09:04:20;;;;;;;3.93;1.70;;;7.00;99.90;;;;;;5046754;28;20235;-62
2022/04/02 09:07:27;;;;;;;2.17;1.43;;;7.20;99.90;;;;;;5046027;28;20326;-62
2022/04/02 09:10:42;;;;;;;1.80;1.10;;;7.20;99.90;;;;;;5045432;28;20726;-62
2022/04/02 09:13:52;;;;;;;3.03;1.10;;;7.40;99.90;;;;;;5042789;28;20316;-62
2022/04/02 09:16:25;;;;;;;2.33;1.20;;;7.70;99.90;;;;;;5047448;28;21000;-62
2022/04/02 09:19:13;;;;;;;1.90;1.20;;;7.70;99.90;;;;;;5049838;28;20275;-62
2022/04/02 09:22:07;;;;;;;1.73;0.97;;;7.40;99.90;;;;;;5049665;28;20251;-63
2022/04/02 09:25:23;;;;;;;1.80;1.00;;;7.20;99.90;;;;;;5049521;28;20252;-62
2022/04/02 09:28:10;;;;;;;1.53;1.20;;;7.10;99.90;;;;;;5030318;28;20244;-62
2022/04/02 09:31:21;;;;;;;2.30;1.30;;;6.60;99.90;;;;;;5049255;28;20664;-62
2022/04/02 09:34:29;;;;;;;2.43;1.20;;;6.50;99.90;;;;;;5041990;28;20238;-62
2022/04/02 09:37:04;;;;;;;2.03;1.17;;;7.10;99.90;;;;;;5044404;28;20243;-62
2022/04/02 09:39:53;;;;;;;1.87;1.10;;;6.90;99.90;;;;;;5049699;28;20235;-63
2022/04/02 09:42:35;;;;;;;1.53;1.10;;;6.40;99.90;;;;;;5049135;28;20318;-63
2022/04/02 09:45:08;;;;;;;1.00;0.90;;;6.70;99.90;;;;;;5049951;28;20232;-62
2022/04/02 09:48:00;;;;;;;1.10;1.00;;;6.80;99.90;;;;;;5049862;28;20242;-62
2022/04/02 09:50:29;;;;;;;1.40;1.10;;;6.90;99.90;;;;;;5049504;28;20243;-62
2022/04/02 09:52:59;;;;;;;3.27;0.87;;;7.00;99.90;;;;;;5049862;28;20247;-62
2022/04/02 09:55:30;;;;;;;1.07;0.83;;;7.20;99.90;;;;;;5049284;28;20236;-62
2022/04/02 09:58:33;;;;;;;1.27;0.90;;;7.30;99.90;;;;;;5049794;28;20250;-62
2022/04/02 10:01:04;;;;;;;1.07;0.80;;;7.50;99.90;;;;;;5049439;28;20231;-61
2022/04/02 10:03:39;;;;;;;1.40;0.90;;;7.80;99.90;;;;;;5048651;28;20247;-62
2022/04/02 10:06:23;;;;;;;1.10;0.73;;;8.10;99.90;;;;;;5049201;28;20598;-62
2022/04/02 10:09:03;;;;;;;1.00;0.90;;;8.10;99.90;;;;;;5047566;28;20278;-62
2022/04/02 10:11:35;;;;;;;1.27;0.87;;;8.20;99.90;;;;;;5053026;28;20247;-62
2022/04/02 10:14:06;;;;;;;2.00;0.83;;;7.90;99.90;;;;;;5053316;28;20282;-62
2022/04/02 10:16:35;;;;;;;1.90;1.00;;;7.50;99.90;;;;;;5053106;28;20281;-62
2022/04/02 10:19:09;;;;;;;2.73;0.90;;;7.30;99.90;;;;;;5053009;28;20267;-62
2022/04/02 10:21:39;;;;;;;1.17;0.60;;;7.10;99.90;;;;;;5052963;28;20669;-63
2022/04/02 10:24:21;;;;;;;1.30;0.83;;;7.00;99.90;;;;;;5052443;28;20322;-62
2022/04/02 10:26:54;;;;;;;0.67;0.60;;;7.30;99.90;;;;;;5046215;28;20303;-62
2022/04/02 10:29:55;;;;;;;1.83;0.80;;;7.90;99.90;;;;;;5052980;28;20235;-63
2022/04/02 10:32:39;;;;;;;1.60;1.00;;;8.30;99.90;;;;;;4991217;28;20268;-62
2022/04/02 10:35:09;;;;;;;1.37;0.60;;;8.60;99.60;;;;;;5044189;28;20760;-62
2022/04/02 10:37:45;;;;;;;0.90;0.70;;;8.80;99.90;;;;;;5045108;28;20745;-60
2022/04/02 10:40:18;;;;;;;2.43;1.07;;;9.00;99.90;;;;;;5052685;28;20233;-62
2022/04/02 10:42:52;;;;;;;1.60;1.00;;;9.00;98.90;;;;;;5051964;28;20242;-62
2022/04/02 10:45:22;;;;;;;1.33;0.80;;;9.70;98.90;;;;;;5052206;28;20618;-62
2022/04/02 10:47:57;;;;;;;1.20;0.77;;;9.30;97.70;;;;;;5052630;28;20227;-62
2022/04/02 10:50:27;;;;;;;2.03;1.00;;;9.40;97.70;;;;;;5052098;28;20244;-62
2022/04/02 10:53:01;;;;;;;1.30;0.83;;;9.00;97.90;;;;;;5052394;28;20235;-62
2022/04/02 10:55:30;;;;;;;0.90;0.77;;;9.10;98.40;;;;;;5051967;28;20348;-62
2022/04/02 10:58:00;;;;;;;1.90;0.90;;;9.20;97.80;;;;;;5052632;28;20686;-62
2022/04/02 11:00:30;;;;;;;1.00;0.90;;;8.90;96.70;;;;;;5051887;28;20221;-62
2022/04/02 11:03:03;;;;;;;2.20;1.10;;;9.30;97.10;;;;;;5049256;28;20240;-62
2022/04/02 11:05:36;;;;;;;1.40;0.87;;;9.30;96.70;;;;;;5049739;28;20236;-61
2022/04/02 11:08:06;;;;;;;1.10;0.90;;;9.30;96.60;;;;;;5052167;28;20259;-62
2022/04/02 11:10:35;;;;;;;0.97;0.87;;;9.50;96.70;;;;;;5051887;28;20227;-62
2022/04/02 11:13:07;;;;;;;0.90;0.80;;;9.20;94.40;;;;;;5052122;28;20239;-62
2022/04/02 11:15:40;;;;;;;1.30;0.83;;;9.00;95.90;;;;;;5051645;28;20262;-62
2022/04/02 11:18:18;;;;;;;1.40;1.07;;;8.20;94.90;;;;;;5052294;28;20688;-62
2022/04/02 11:20:48;;;;;;;0.97;0.80;;;7.70;96.40;;;;;;5051309;28;20249;-62
2022/04/02 11:23:22;;;;;;;0.80;0.80;;;8.00;97.30;;;;;;5051260;28;20243;-62
2022/04/02 11:25:54;;;;;;;3.53;0.87;;;8.70;96.80;;;;;;5051635;28;20228;-62
2022/04/02 11:28:25;;;;;;;2.57;1.33;;;9.10;96.80;;;;;;5051873;28;20264;-62
2022/04/02 11:31:02;;;;;;;1.53;0.80;;;8.40;93.60;;;;;;5051425;28;20232;-62
2022/04/02 11:33:33;;;;;;;1.40;0.90;;;8.00;94.50;;;;;;5051462;28;20285;-62
2022/04/02 11:36:06;;;;;;;2.20;0.80;;;7.70;95.30;;;;;;5051068;28;20256;-62
2022/04/02 11:38:39;;;;;;;1.30;1.10;;;7.60;96.10;;;;;;5051941;28;20278;-62
2022/04/02 11:41:15;;;;;;;0.70;0.70;;;8.20;96.90;;;;;;5051590;28;20354;-62
2022/04/02 11:43:46;;;;;;;1.50;0.70;;;8.70;94.80;;;;;;5044603;28;20720;-62
2022/04/02 11:46:16;;;;;;;1.27;0.90;;;8.80;93.40;;;;;;5050895;28;20271;-63
2022/04/02 11:48:53;;;;;;;1.47;0.90;;;8.30;93.50;;;;;;5051085;28;20239;-62
2022/04/02 11:51:23;;;;;;;1.43;1.07;;;8.60;95.40;;;;;;5048610;28;20716;-62
2022/04/02 11:53:52;;;;;;;1.17;1.00;;;8.90;94.70;;;;;;5051503;28;20604;-62
2022/04/02 11:56:26;;;;;;;1.53;0.90;;;8.90;95.00;;;;;;5048776;28;20285;-63
2022/04/02 11:58:57;;;;;;;1.27;0.90;;;8.50;96.40;;;;;;5051217;28;20266;-62
2022/04/02 12:01:27;;;;;;;1.00;0.90;;;8.20;96.30;;;;;;5050858;28;20318;-63
2022/04/02 12:04:15;;;;;;;1.80;1.00;;;8.10;95.80;;;;;;5050476;28;20243;-62
2022/04/02 12:06:45;;;;;;;2.03;1.00;;;8.20;96.00;;;;;;5042262;28;20235;-62
2022/04/02 12:09:16;;;;;;;1.33;1.00;;;8.10;95.50;;;;;;5049441;28;20240;-61
2022/04/02 12:11:49;;;;;;;0.80;0.80;;;8.10;95.40;;;;;;5050696;28;20235;-62
2022/04/02 12:14:33;;;;;;;1.47;0.90;;;8.20;95.30;;;;;;5050890;28;20240;-63
2022/04/02 12:17:03;;;;;;;1.30;1.07;;;8.30;94.60;;;;;;5050791;28;20314;-62
2022/04/02 12:19:42;;;;;;;1.30;0.97;;;8.00;95.00;;;;;;5050520;28;20579;-62
2022/04/02 12:22:26;;;;;;;1.77;1.13;;;8.10;95.40;;;;;;5050376;28;20745;-62
2022/04/02 12:24:57;;;;;;;1.37;0.90;;;8.20;95.70;;;;;;5050504;28;20242;-62
2022/04/02 12:27:27;;;;;;;1.77;0.90;;;8.30;97.20;;;;;;5050138;28;20239;-62
2022/04/02 12:29:58;;;;;;;1.83;1.13;;;8.10;96.30;;;;;;5047177;28;20240;-62
2022/04/02 12:32:32;;;;;;;1.27;1.00;;;7.70;95.80;;;;;;5049698;28;20770;-61
2022/04/02 12:35:10;;;;;;;1.23;1.10;;;7.30;95.20;;;;;;5045730;28;20262;-62
2022/04/02 12:37:42;;;;;;;1.20;0.90;;;7.30;95.10;;;;;;5043954;28;20232;-63
2022/04/02 12:40:17;;;;;;;1.50;1.10;;;7.30;96.40;;;;;;5049127;28;20243;-61
2022/04/02 12:42:46;;;;;;;1.50;1.07;;;7.20;96.80;;;;;;5042714;28;20335;-61
2022/04/02 12:45:17;;;;;;;2.07;1.20;;;7.30;97.40;;;;;;5050293;28;20231;-63
2022/04/02 12:47:58;;;;;;;1.67;1.53;;;7.50;96.90;;;;;;5050439;28;20239;-62
2022/04/02 12:50:28;;;;;;;2.03;1.10;;;7.70;97.50;;;;;;5050065;28;20232;-62
2022/04/02 12:52:56;;;;;;;1.83;1.23;;;7.70;95.50;;;;;;5050426;28;20243;-62
2022/04/02 12:55:25;;;;;;;1.63;1.20;;;7.50;96.00;;;;;;5050066;28;20267;-62
2022/04/02 12:58:00;;;;;;;1.37;1.10;;;7.60;97.20;;;;;;5047689;28;20703;-62
2022/04/02 13:00:32;;;;;;;2.77;1.27;;;7.60;96.00;;;;;;5047809;28;20763;-62
2022/04/02 13:03:02;;;;;;;1.60;1.10;;;7.80;96.80;;;;;;5049749;28;20309;-63
2022/04/02 13:05:45;;;;;;;2.10;1.10;;;7.80;95.80;;;;;;5049719;28;20243;-62
2022/04/02 13:08:26;;;;;;;1.60;1.07;;;7.90;96.70;;;;;;5050233;28;20715;-62
2022/04/02 13:10:57;;;;;;;1.53;1.00;;;8.00;96.20;;;;;;5050151;28;20577;-61
2022/04/02 13:13:37;;;;;;;1.77;1.30;;;8.00;96.40;;;;;;5050205;28;20715;-62
2022/04/02 13:16:09;;;;;;;2.23;1.10;;;8.00;95.20;;;;;;5050137;28;20711;-62
2022/04/02 13:21:32;;;;;;;1.43;1.20;;;7.40;95.70;;;;;;5049949;28;20330;-62
2022/04/02 13:24:27;;;;;;;1.50;1.37;;;7.30;96.10;;;;;;5049531;28;20239;-63
2022/04/02 13:27:24;;;;;;;1.60;1.00;;;7.20;96.10;;;;;;5044150;28;20228;-62
2022/04/02 13:30:04;;;;;;;1.53;1.20;;;7.10;94.60;;;;;;5049681;28;20322;-63
2022/04/02 13:33:11;;;;;;;2.03;0.97;;;7.10;95.30;;;;;;5049228;28;20262;-63
2022/04/02 13:35:43;;;;;;;2.23;1.00;;;7.20;95.50;;;;;;5049433;28;20224;-62
2022/04/02 13:38:41;;;;;;;1.57;1.00;;;7.30;95.90;;;;;;5050145;28;20243;-62
2022/04/02 13:41:13;;;;;;;1.63;0.97;;;7.30;95.60;;;;;;5049908;28;20736;-63